Latest Weather Observations for Esperance Airport

IDW60801

Issued at 9:35 pm WST Wednesday 26 November 2014 (issued every 30 minutes, with the page automatically refreshed every 10 minutes)

About weather observations | Map of weather stations | Latest weather observations for WA | Other Formats
Station Details ID: 009542 Name: ESPERANCE AERO Lat: -33.68 Lon: 121.83 Height: 142.0 m
Data from the previous 72 hours. | See also: Recent months at Esperance Airport
Date/Time
WST
Temp
°C
App
Temp
°C
Dew
Point
Rel
Hum
%
Delta-T
°C
Wind Press
QNH
hPa
Press
MSL
hPa
Rain
since 9 am
mm
Dir
 
Spd
km/h
Gust
km/h
Spd
kts
Gust
kts
26/09:30pm 16.8 12.9 12.1 74 2.6 ENE 24 37 13 20 1017.7 1017.4 0.0
26/09:00pm 17.4 13.2 12.3 72 2.8 ENE 26 41 14 22 1017.7 1017.4 0.0
26/08:30pm 18.0 13.5 12.5 70 3.1 ENE 28 43 15 23 1017.6 1017.3 0.0
26/08:00pm 19.3 15.5 12.3 64 3.9 E 24 39 13 21 1017.2 1016.8 0.0
26/07:30pm 19.8 15.6 12.3 62 4.2 E 26 41 14 22 1017.0 1016.6 0.0
26/07:00pm 20.9 16.8 12.6 59 4.7 E 26 35 14 19 1016.8 1016.4 0.0
26/06:30pm 22.4 18.4 12.9 55 5.5 E 26 39 14 21 1016.6 1016.2 0.0
26/06:00pm 23.6 19.8 13.5 53 5.9 E 26 37 14 20 1016.5 1016.1 0.0
26/05:30pm 25.0 21.4 14.2 51 6.4 E 26 33 14 18 1016.1 1015.8 0.0
26/05:00pm 25.0 21.6 14.8 53 6.1 SE 26 32 14 17 1016.1 1015.8 0.0
26/04:30pm 25.3 21.6 15.0 53 6.2 SE 28 35 15 19 1016.2 1015.9 0.0
26/04:00pm 25.6 21.9 15.0 52 6.4 SE 28 37 15 20 1016.2 1015.9 0.0
26/03:30pm 26.4 23.0 15.8 52 6.5 SE 28 37 15 20 1016.3 1016.0 0.0
26/03:00pm 26.7 23.4 15.1 49 7.0 SE 26 37 14 20 1016.6 1016.2 0.0
26/02:30pm 27.7 25.0 10.4 34 9.8 E 15 26 8 14 1017.0 1016.6 0.0
26/02:00pm 27.3 24.0 9.6 33 9.9 ENE 17 26 9 14 1017.5 1017.1 0.0
26/01:30pm 27.3 24.4 10.9 36 9.3 ENE 17 28 9 15 1017.9 1017.6 0.0
26/01:00pm 26.6 23.0 10.7 37 9.0 NE 20 26 11 14 1018.2 1017.9 0.0
26/12:30pm 26.6 23.2 11.1 38 8.8 ENE 20 33 11 18 1018.5 1018.2 0.0
26/12:00pm 25.9 23.4 10.9 39 8.5 ENE 15 28 8 15 1019.2 1018.9 0.0
26/11:30am 24.6 20.8 11.2 43 7.6 ENE 22 32 12 17 1019.6 1019.3 0.0
26/11:00am 24.8 21.7 12.1 45 7.3 NE 20 33 11 18 1020.2 1019.9 0.0
26/10:30am 22.9 19.7 11.3 48 6.5 NE 19 30 10 16 1020.9 1020.6 0.0
26/10:00am 21.7 18.3 11.4 52 5.7 ENE 20 32 11 17 1021.2 1020.9 0.0
26/09:30am 21.8 18.7 11.5 52 5.8 NE 19 33 10 18 1021.7 1021.4 0.0
26/09:00am 20.1 16.3 11.1 56 4.9 NE 22 35 12 19 1021.9 1021.6 0.0
26/08:30am 19.2 15.7 11.0 59 4.5 NE 20 32 11 17 1022.1 1021.8 0.0
26/08:00am 19.2 16.1 12.2 64 3.9 NE 20 33 11 18 1022.1 1021.8 0.0
26/07:30am 17.6 13.5 11.6 68 3.3 NE 24 35 13 19 1022.4 1022.1 0.0
26/07:00am 16.5 12.8 11.4 72 2.8 NE 22 37 12 20 1022.2 1021.9 0.0
26/06:30am 15.4 12.6 11.4 77 2.2 NE 17 26 9 14 1022.1 1021.8 0.0
26/06:00am 13.7 10.8 10.9 83 1.5 NE 17 24 9 13 1022.1 1021.8 0.0
26/05:30am 12.2 9.1 10.4 89 0.9 NE 17 24 9 13 1022.0 1021.7 0.0
26/05:00am 11.3 7.7 10.0 92 0.7 ENE 19 26 10 14 1021.6 1021.3 0.0
26/04:30am 11.3 8.1 10.0 92 0.7 ENE 17 24 9 13 1021.5 1021.2 0.0
26/04:00am 11.3 8.5 10.0 92 0.7 ENE 15 22 8 12 1021.4 1021.1 0.0
26/03:30am 11.2 8.4 10.1 93 0.6 E 15 22 8 12 1021.4 1021.1 0.0
26/03:00am 11.1 8.7 9.9 92 0.6 E 13 17 7 9 1021.3 1021.0 0.0
26/02:30am 11.5 9.1 10.1 91 0.7 E 13 19 7 10 1021.2 1020.9 0.0
26/02:00am 11.4 8.9 9.8 90 0.8 E 13 17 7 9 1021.3 1021.0 0.0
26/01:30am 11.7 9.3 9.9 89 0.9 E 13 19 7 10 1021.5 1021.2 0.0
26/01:00am 12.0 9.6 9.9 87 1.1 ENE 13 19 7 10 1021.7 1021.4 0.0
26/12:30am 12.5 10.1 10.0 85 1.3 ENE 13 20 7 11 1021.9 1021.6 0.0
26/12:00am 12.7 10.3 10.2 85 1.3 ENE 13 20 7 11 1021.9 1021.6 0.0
 
Date/Time
WST
Temp
°C
App
Temp
°C
Dew
Point
Rel
Hum
%
Delta-T
°C
Wind Press
QNH
hPa
Press
MSL
hPa
Rain
since 9 am
mm
Dir
 
Spd
km/h
Gust
km/h
Spd
kts
Gust
kts
25/11:30pm 13.0 9.9 10.2 83 1.5 ENE 17 24 9 13 1022.0 1021.7 0.0
25/11:00pm 13.3 10.2 10.3 82 1.6 ENE 17 26 9 14 1022.2 1021.9 0.0
25/10:30pm 13.7 10.5 10.1 79 1.9 ENE 17 28 9 15 1022.4 1022.1 0.0
25/10:00pm 14.1 10.4 10.1 77 2.1 E 20 32 11 17 1022.4 1022.1 0.0
25/09:30pm 14.4 10.3 10.0 75 2.3 E 22 33 12 18 1022.3 1022.0 0.0
25/09:00pm 14.6 10.1 10.2 75 2.3 E 24 35 13 19 1022.3 1022.0 0.0
25/08:30pm 14.8 10.1 10.8 77 2.1 E 26 37 14 20 1022.4 1022.1 0.0
25/08:00pm 15.0 10.8 11.0 77 2.1 E 24 33 13 18 1022.4 1022.1 0.0
25/07:30pm 15.3 11.2 11.5 78 2.1 ESE 24 32 13 17 1022.4 1022.1 0.0
25/07:00pm 15.7 11.7 11.7 77 2.2 ESE 24 32 13 17 1022.4 1022.1 0.0
25/06:30pm 16.2 11.0 11.6 74 2.5 ESE 30 39 16 21 1022.2 1021.9 0.0
25/06:00pm 17.3 11.8 12.0 71 2.9 ESE 32 41 17 22 1021.9 1021.6 0.0
25/05:30pm 17.7 12.0 11.9 69 3.2 ESE 33 41 18 22 1021.6 1021.3 0.0
25/05:00pm 18.2 12.2 12.0 67 3.4 ESE 35 43 19 23 1021.2 1020.9 0.0
25/04:30pm 19.4 13.9 11.7 61 4.3 ESE 32 41 17 22 1021.0 1020.7 0.0
25/04:00pm 20.9 15.4 12.6 59 4.7 ESE 33 41 18 22 1021.1 1020.8 0.0
25/03:30pm 20.7 15.4 12.4 59 4.7 SE 32 43 17 23 1021.3 1021.0 0.0
25/03:00pm 20.5 15.6 12.7 61 4.4 SE 30 39 16 21 1021.4 1021.1 0.0
25/02:30pm 21.2 16.2 12.3 57 5.0 SE 30 37 16 20 1021.5 1021.2 0.0
25/02:00pm 21.6 16.5 11.9 54 5.5 SSE 30 39 16 21 1021.7 1021.4 0.0
25/01:30pm 21.5 16.5 12.1 55 5.3 SSE 30 39 16 21 1021.9 1021.6 0.0
25/01:00pm 21.4 17.2 11.1 52 5.7 SSE 24 35 13 19 1022.0 1021.7 0.0
25/12:30pm 21.7 18.0 11.4 52 5.8 SSE 22 32 12 17 1022.6 1022.3 0.0
25/12:00pm 21.0 17.5 10.2 50 5.9 SE 19 24 10 13 1022.8 1022.5 0.0
25/11:30am 21.5 19.5 10.0 48 6.3 ENE 11 17 6 9 1023.0 1022.7 0.0
25/11:00am 22.8 20.3 11.2 48 6.5 E 15 32 8 17 1023.2 1022.9 0.0
25/10:30am 20.7 17.8 9.6 49 6.0 NE 15 24 8 13 1023.5 1023.3 0.0
25/10:00am 21.1 18.8 10.3 50 5.9 E 13 22 7 12 1024.2 1023.9 0.0
25/09:30am 19.1 16.3 9.9 55 4.9 ENE 15 24 8 13 1024.3 1024.0 0.0
25/09:00am 19.1 16.6 9.6 54 5.0 ENE 13 20 7 11 1024.4 1024.1 0.0
25/08:30am 18.0 14.6 9.1 56 4.7 E 17 24 9 13 1024.5 1024.2 0.0
25/08:00am 17.4 14.0 9.1 58 4.3 NE 17 24 9 13 1024.6 1024.3 0.0
25/07:30am 16.6 12.9 9.5 63 3.7 NNE 19 24 10 13 1025.0 1024.7 0.0
25/07:00am 16.1 13.1 9.3 64 3.5 ENE 15 20 8 11 1025.0 1024.7 0.0
25/06:30am 14.5 11.7 8.7 68 3.0 ENE 13 22 7 12 1024.9 1024.6 0.0
25/06:00am 13.3 10.4 8.2 71 2.5 ENE 13 19 7 10 1024.6 1024.3 0.0
25/05:30am 12.2 9.5 7.5 73 2.3 ENE 11 15 6 8 1024.6 1024.3 0.0
25/05:00am 10.9 8.1 7.0 77 1.9 ENE 11 15 6 8 1024.3 1024.0 0.0
25/04:30am 10.9 8.5 6.8 76 2.0 NE 9 13 5 7 1024.0 1023.7 0.0
25/04:00am 10.9 8.5 6.8 76 1.9 ENE 9 19 5 10 1023.7 1023.5 0.0
25/03:30am 11.3 8.5 6.8 74 2.2 ENE 11 13 6 7 1023.7 1023.5 0.0
25/03:00am 11.4 9.0 7.1 75 2.1 NE 9 13 5 7 1023.7 1023.5 0.0
25/02:30am 11.5 8.8 7.2 75 2.1 NE 11 15 6 8 1023.6 1023.4 0.0
25/02:00am 11.4 9.1 7.3 76 2.0 NE 9 13 5 7 1023.7 1023.5 0.0
25/01:30am 11.5 9.2 7.4 76 2.0 NE 9 15 5 8 1023.7 1023.5 0.0
25/01:00am 11.4 9.2 7.7 78 1.8 NE 9 15 5 8 1024.0 1023.7 0.0
25/12:30am 11.1 8.9 8.0 81 1.5 ENE 9 13 5 7 1024.1 1023.8 0.0
25/12:00am 11.1 9.0 8.1 82 1.5 ENE 9 11 5 6 1024.3 1024.0 0.0
 
Date/Time
WST
Temp
°C
App
Temp
°C
Dew
Point
Rel
Hum
%
Delta-T
°C
Wind Press
QNH
hPa
Press
MSL
hPa
Rain
since 9 am
mm
Dir
 
Spd
km/h
Gust
km/h
Spd
kts
Gust
kts
24/11:30pm 11.3 9.1 8.0 80 1.6 E 9 13 5 7 1024.6 1024.3 0.0
24/11:00pm 11.5 9.4 8.4 81 1.5 E 9 11 5 6 1024.9 1024.6 0.0
24/10:30pm 11.7 9.6 8.4 80 1.6 E 9 13 5 7 1025.0 1024.7 0.0
24/10:00pm 12.0 10.0 8.7 80 1.6 E 9 13 5 7 1025.1 1024.8 0.0
24/09:30pm 12.2 9.8 8.7 79 1.8 E 11 17 6 9 1025.0 1024.7 0.0
24/09:00pm 12.4 9.3 8.9 79 1.8 E 15 19 8 10 1024.7 1024.4 0.0
24/08:30pm 12.2 9.1 8.9 80 1.7 ESE 15 17 8 9 1024.6 1024.3 0.0
24/08:00pm 12.6 9.9 8.9 78 1.9 ESE 13 17 7 9 1024.5 1024.2 0.0
24/07:30pm 13.2 10.5 8.9 75 2.2 SE 13 17 7 9 1024.3 1024.0 0.0
24/07:00pm 13.7 10.5 8.5 71 2.6 SE 15 19 8 10 1024.0 1023.7 0.0
24/06:30pm 14.6 10.7 8.5 67 3.1 SE 19 24 10 13 1023.6 1023.4 0.0
24/06:00pm 15.4 10.8 8.2 62 3.6 SE 22 32 12 17 1023.2 1022.9 0.0
24/05:30pm 16.1 11.7 8.8 62 3.8 SSE 22 30 12 16 1023.0 1022.7 0.0
24/05:00pm 16.5 11.3 7.2 54 4.6 SSE 24 32 13 17 1022.7 1022.4 0.0
24/04:30pm 17.2 12.4 7.3 52 5.0 SSE 22 32 12 17 1022.5 1022.2 0.0
24/04:00pm 17.8 13.5 7.0 49 5.4 SSE 19 28 10 15 1022.6 1022.3 0.0
24/03:30pm 18.1 13.7 7.5 50 5.4 SSE 20 28 11 15 1022.5 1022.2 0.0
24/03:00pm 18.7 14.1 8.1 50 5.5 SE 22 30 12 16 1022.5 1022.2 0.0
24/02:30pm 19.1 14.8 7.8 48 5.8 SE 20 28 11 15 1022.6 1022.3 0.0
24/02:00pm 19.1 14.7 7.5 47 5.9 S 20 32 11 17 1022.7 1022.4 0.0
24/01:30pm 19.4 14.6 7.5 46 6.1 SSE 22 33 12 18 1022.7 1022.4 0.0
24/01:00pm 19.3 16.1 6.8 44 6.3 ESE 13 20 7 11 1022.7 1022.4 0.0
24/12:30pm 18.6 15.9 5.8 43 6.3 SW 9 13 5 7 1022.9 1022.6 0.0
24/12:00pm 18.4 14.4 6.6 46 5.9 S 17 28 9 15 1023.3 1023.0 0.0
24/11:30am 17.9 13.3 6.7 48 5.6 ESE 20 28 11 15 1023.5 1023.3 0.0
24/11:00am 17.7 14.4 6.6 48 5.5 SSW 13 28 7 15 1023.9 1023.6 0.0
24/10:30am 17.8 14.4 6.0 46 5.8 S 13 22 7 12 1024.0 1023.7 0.0
24/10:00am 16.9 13.5 6.1 49 5.3 SSE 13 26 7 14 1024.2 1023.9 0.0
24/09:30am 16.6 13.6 6.1 50 5.1 S 11 22 6 12 1024.2 1023.9 0.0
24/09:00am 16.8 13.5 6.6 51 5.0 SSE 13 20 7 11 1024.2 1023.9 0.0
24/08:30am 15.8 12.4 6.0 52 4.8 S 13 20 7 11 1024.1 1023.8 0.0
24/08:00am 15.8 11.8 6.8 55 4.4 S 17 24 9 13 1023.9 1023.6 0.0
24/07:30am 15.7 12.4 8.2 61 3.8 S 15 19 8 10 1023.5 1023.3 0.0
24/07:00am 15.7 12.5 6.7 55 4.4 SSE 13 20 7 11 1023.1 1022.8 0.0
24/06:30am 14.8 12.5 7.6 62 3.6 SSW 9 13 5 7 1022.9 1022.6 0.0
24/06:00am 13.6 11.8 8.0 69 2.8 WSW 7 9 4 5 1022.6 1022.3 0.0
24/05:30am 10.9 10.7 9.0 88 1.0 CALM 0 0 0 0 1022.2 1021.9 0.0
24/05:00am 10.1 9.7 8.4 89 0.8 CALM 0 0 0 0 1021.9 1021.6 0.0
24/04:30am 10.0 9.4 7.6 85 1.2 CALM 0 0 0 0 1021.6 1021.3 0.0
24/04:00am 9.8 9.2 7.4 85 1.1 CALM 0 2 0 1 1021.2 1020.9 0.0
24/03:30am 9.4 8.8 7.3 87 1.0 CALM 0 0 0 0 1021.0 1020.7 0.0
24/03:00am 10.7 9.1 7.8 82 1.4 S 6 7 3 4 1020.9 1020.6 0.0
24/02:30am 10.8 9.1 7.7 81 1.5 S 6 9 3 5 1020.9 1020.6 0.0
24/02:00am 10.7 8.9 7.2 79 1.7 S 6 7 3 4 1020.7 1020.4 0.0
24/01:30am 10.5 8.4 6.8 78 1.8 S 7 9 4 5 1020.7 1020.4 0.0
24/01:00am 10.5 7.6 6.6 77 1.8 SSW 11 13 6 7 1020.7 1020.4 0.0
24/12:30am 10.3 7.9 7.0 80 1.6 SSW 9 11 5 6 1020.7 1020.4 0.0
24/12:00am 10.6 7.5 7.3 80 1.6 SSW 13 15 7 8 1020.8 1020.5 0.0
 
Date/Time
WST
Temp
°C
App
Temp
°C
Dew
Point
Rel
Hum
%
Delta-T
°C
Wind Press
QNH
hPa
Press
MSL
hPa
Rain
since 9 am
mm
Dir
 
Spd
km/h
Gust
km/h
Spd
kts
Gust
kts
23/11:30pm 11.9 9.2 7.2 73 2.3 SSW 11 15 6 8 1020.9 1020.6 0.0
23/11:00pm 11.4 8.8 7.7 78 1.8 SSW 11 13 6 7 1020.8 1020.5 0.0
23/10:30pm 11.6 9.0 7.9 78 1.8 SSW 11 13 6 7 1020.7 1020.4 0.0
23/10:00pm 11.6 8.6 7.7 77 1.9 SSW 13 17 7 9 1020.6 1020.3 0.0

Other Formats:

Comma delimited format used in spreadsheet applications
http://www.bom.gov.au/fwo/IDW60801/IDW60801.95638.axf

JavaScript Object Notation format (JSON) in row-major order
http://www.bom.gov.au/fwo/IDW60801/IDW60801.95638.json